createdAt,value
2024-03-12T00:00:03.437Z,105.15
2024-03-12T00:05:09.224Z,80.28
2024-03-12T00:10:16.896Z,80.30
2024-03-12T00:15:26.713Z,100.13
2024-03-12T00:20:34.819Z,121.50
2024-03-12T00:25:38.530Z,101.85
2024-03-12T00:30:45.116Z,103.60
2024-03-12T00:35:47.869Z,69.82
2024-03-12T00:40:51.881Z,97.40
2024-03-12T00:45:54.570Z,107.17
2024-03-12T00:50:58.357Z,117.25
2024-03-12T00:56:02.636Z,98.37
2024-03-12T01:06:16.454Z,94.88
2024-03-12T01:11:19.842Z,108.85
2024-03-12T01:16:22.940Z,111.68
2024-03-12T01:21:25.631Z,93.63
2024-03-12T01:26:28.295Z,86.38
2024-03-12T01:31:32.447Z,127.85
2024-03-12T01:36:37.910Z,140.32
2024-03-12T01:41:43.046Z,130.25
2024-03-12T01:46:47.198Z,133.50
2024-03-12T01:51:53.193Z,126.57
2024-03-12T01:56:55.823Z,127.38
2024-03-12T02:02:19.407Z,103.72
2024-03-12T02:07:22.024Z,113.85
2024-03-12T02:12:25.546Z,115.70
2024-03-12T02:17:28.251Z,127.30
2024-03-12T02:22:32.828Z,108.43
2024-03-12T02:32:39.813Z,115.88
2024-03-12T02:37:46.201Z,82.80
2024-03-12T02:42:50.442Z,104.40
2024-03-12T02:47:53.480Z,92.60
2024-03-12T02:52:56.793Z,94.88
2024-03-12T02:57:59.584Z,117.85
2024-03-12T03:03:04.568Z,131.20
2024-03-12T03:08:09.694Z,99.32
2024-03-12T03:13:12.722Z,112.85
2024-03-12T03:18:15.764Z,120.68
2024-03-12T03:23:18.500Z,118.57
2024-03-12T03:28:21.137Z,116.95
2024-03-12T03:33:24.095Z,82.07
2024-03-12T03:38:28.967Z,113.07
2024-03-12T03:43:31.656Z,87.28
2024-03-12T03:48:36.158Z,112.03
2024-03-12T03:53:39.778Z,88.38
2024-03-12T03:58:44.650Z,81.63
2024-03-12T04:03:47.498Z,92.55
2024-03-12T04:08:56.309Z,80.47
2024-03-12T04:13:59.444Z,90.60
2024-03-12T04:19:02.285Z,74.03
2024-03-12T04:24:05.439Z,90.22
2024-03-12T04:29:08.935Z,82.15
2024-03-12T04:34:11.734Z,82.20
2024-03-12T04:39:32.260Z,78.03
2024-03-12T04:44:38.050Z,79.78
2024-03-12T04:49:43.662Z,72.30
2024-03-12T04:54:47.261Z,81.15
2024-03-12T04:59:50.154Z,89.90
2024-03-12T05:04:53.173Z,86.05
2024-03-12T05:09:56.524Z,73.90
2024-03-12T05:15:00.694Z,79.35
2024-03-12T05:20:07.384Z,80.20
2024-03-12T05:25:12.116Z,87.93
2024-03-12T05:30:17.815Z,82.85
2024-03-12T05:35:23.862Z,99.70
2024-03-12T05:40:45.077Z,76.03
2024-03-12T05:46:06.936Z,85.68
2024-03-12T05:51:12.173Z,84.65
2024-03-12T05:56:18.786Z,101.03
2024-03-12T06:01:25.530Z,83.20
2024-03-12T06:06:28.716Z,86.43
2024-03-12T06:11:32.945Z,105.82
2024-03-12T06:17:00.212Z,80.82
2024-03-12T06:22:04.349Z,85.38
2024-03-12T06:27:08.848Z,72.97
2024-03-12T06:32:11.926Z,72.45
2024-03-12T06:37:14.953Z,99.45
2024-03-12T06:42:20.479Z,83.15
2024-03-12T06:47:26.716Z,84.70
2024-03-12T06:52:29.347Z,96.75
2024-03-12T06:57:36.436Z,82.18
2024-03-12T07:02:39.622Z,84.28
2024-03-12T07:07:47.356Z,56.05
2024-03-12T07:12:50.099Z,59.40
2024-03-12T07:17:53.887Z,64.53
2024-03-12T07:23:00.214Z,65.47
2024-03-12T07:28:07.835Z,80.72
2024-03-12T07:33:12.927Z,67.72
2024-03-12T07:38:15.949Z,71.67
2024-03-12T07:43:20.048Z,70.85
2024-03-12T07:48:24.902Z,72.28
2024-03-12T07:53:31.971Z,64.20
2024-03-12T07:58:36.531Z,94.95
2024-03-12T08:03:43.312Z,77.30
2024-03-12T08:08:46.525Z,79.95
2024-03-12T08:13:49.423Z,71.20
2024-03-12T08:18:52.480Z,85.25
2024-03-12T08:24:01.367Z,65.53
2024-03-12T08:29:05.838Z,62.55
2024-03-12T08:39:13.568Z,49.92
2024-03-12T08:49:34.736Z,72.93
2024-03-12T08:54:37.812Z,74.25
2024-03-12T08:59:41.391Z,67.85
2024-03-12T09:04:45.672Z,82.00
2024-03-12T09:09:51.853Z,57.67
2024-03-12T09:14:56.827Z,55.15
2024-03-12T09:20:18.732Z,63.63
2024-03-12T09:25:21.527Z,45.55
2024-03-12T09:30:28.377Z,55.45
2024-03-12T09:35:31.567Z,53.90
2024-03-12T09:40:34.297Z,54.50
2024-03-12T09:45:40.531Z,52.30
2024-03-12T09:50:43.963Z,41.45
2024-03-12T09:55:47.424Z,58.00
2024-03-12T10:00:50.203Z,67.25
2024-03-12T10:05:54.903Z,45.83
2024-03-12T10:10:58.214Z,37.38
2024-03-12T10:16:02.645Z,52.85
2024-03-12T10:26:22.396Z,53.45
2024-03-12T10:31:30.458Z,48.03
2024-03-12T10:36:34.825Z,47.95
2024-03-12T10:41:44.613Z,67.15
2024-03-12T10:46:48.222Z,64.15
2024-03-12T10:51:51.451Z,57.10
2024-03-12T10:56:54.984Z,51.30
2024-03-12T11:02:00.061Z,56.30
2024-03-12T11:07:07.073Z,60.25
2024-03-12T11:12:17.467Z,60.95
2024-03-12T11:17:30.835Z,63.10
2024-03-12T11:22:37.253Z,55.67
2024-03-12T11:27:40.072Z,74.28
2024-03-12T11:32:44.175Z,57.75
2024-03-12T11:38:02.872Z,52.83
2024-03-12T11:43:07.967Z,59.33
2024-03-12T11:48:11.944Z,62.13
2024-03-12T11:53:19.858Z,73.28
2024-03-12T11:58:39.577Z,57.17
2024-03-12T12:03:46.205Z,57.05
2024-03-12T12:08:53.757Z,46.40
2024-03-12T12:14:05.351Z,52.93
2024-03-12T12:19:18.504Z,66.55
2024-03-12T12:24:29.809Z,75.95
2024-03-12T12:29:54.828Z,59.72
2024-03-12T12:34:58.768Z,57.03
2024-03-12T12:40:01.806Z,65.35
2024-03-12T12:45:06.550Z,60.88
2024-03-12T12:55:17.067Z,54.40
2024-03-12T13:00:22.423Z,54.42
2024-03-12T13:05:25.952Z,60.72
2024-03-12T13:10:28.753Z,61.90
2024-03-12T13:15:35.584Z,63.30
2024-03-12T13:20:45.634Z,63.28
2024-03-12T13:25:48.450Z,56.00
2024-03-12T13:30:54.842Z,62.95
2024-03-12T13:36:00.350Z,56.65
2024-03-12T13:41:03.446Z,57.47
2024-03-12T13:46:09.788Z,60.72
2024-03-12T13:51:15.070Z,50.88
2024-03-12T13:56:17.901Z,70.57
2024-03-12T14:01:20.766Z,68.18
2024-03-12T14:06:23.626Z,64.07
2024-03-12T14:11:26.872Z,63.42
2024-03-12T14:16:31.238Z,66.20
2024-03-12T14:21:34.643Z,74.60
2024-03-12T14:26:37.498Z,65.20
2024-03-12T14:31:42.800Z,65.93
2024-03-12T14:36:47.080Z,69.15
2024-03-12T14:46:54.705Z,73.45
2024-03-12T14:51:58.279Z,65.60
2024-03-12T14:57:01.136Z,69.88
2024-03-12T15:02:06.190Z,63.72
2024-03-12T15:07:12.193Z,65.32
2024-03-12T15:12:21.145Z,78.18
2024-03-12T15:17:46.171Z,70.00
2024-03-12T15:22:51.334Z,78.38
2024-03-12T15:27:54.504Z,77.60
2024-03-12T15:38:06.971Z,66.15
2024-03-12T15:43:11.171Z,71.82
2024-03-12T15:48:14.987Z,81.78
2024-03-12T15:53:17.883Z,66.07
2024-03-12T15:58:22.959Z,78.38
2024-03-12T16:03:26.024Z,76.50
2024-03-12T16:08:30.689Z,73.05
2024-03-12T16:13:33.438Z,77.25
2024-03-12T16:18:36.307Z,68.78
2024-03-12T16:23:40.420Z,84.15
2024-03-12T16:28:43.193Z,71.45
2024-03-12T16:33:45.815Z,82.70
2024-03-12T16:38:48.756Z,81.80
2024-03-12T16:43:52.694Z,84.85
2024-03-12T16:48:55.627Z,71.80
2024-03-12T16:54:17.325Z,74.20
2024-03-12T16:59:21.726Z,83.40
2024-03-12T17:09:28.864Z,78.90
2024-03-12T17:14:38.371Z,67.73
2024-03-12T17:19:41.560Z,62.20
2024-03-12T17:24:44.912Z,62.08
2024-03-12T17:29:48.955Z,53.90
2024-03-12T17:34:52.215Z,51.00
2024-03-12T17:39:56.945Z,55.92
2024-03-12T17:44:59.963Z,55.17
2024-03-12T17:50:04.139Z,50.95
2024-03-12T17:55:09.447Z,58.33
2024-03-12T18:00:18.750Z,62.25
2024-03-12T18:05:23.131Z,69.22
2024-03-12T18:15:29.423Z,74.20
2024-03-12T18:20:34.657Z,74.68
2024-03-12T18:25:38.322Z,73.85
2024-03-12T18:30:41.907Z,78.07
2024-03-12T18:35:49.272Z,71.10
2024-03-12T18:40:53.125Z,68.90
2024-03-12T18:45:56.133Z,84.45
2024-03-12T18:50:59.828Z,70.53
2024-03-12T18:56:03.996Z,64.78
2024-03-12T19:01:26.944Z,71.13
2024-03-12T19:06:30.553Z,68.60
2024-03-12T19:11:33.549Z,62.75
2024-03-12T19:16:37.255Z,63.83
2024-03-12T19:21:41.774Z,63.53
2024-03-12T19:26:44.512Z,63.85
2024-03-12T19:32:07.472Z,80.90
2024-03-12T19:42:14.170Z,60.28
2024-03-12T19:47:17.262Z,54.95
2024-03-12T19:52:20.515Z,55.53
2024-03-12T19:57:24.310Z,42.03
2024-03-12T20:02:28.644Z,45.07
2024-03-12T20:07:33.294Z,40.03
2024-03-12T20:12:38.050Z,42.25
2024-03-12T20:17:46.456Z,41.80
2024-03-12T20:22:52.505Z,36.70
2024-03-12T20:27:56.491Z,47.70
2024-03-12T20:33:03.511Z,42.53
2024-03-12T20:38:10.471Z,37.70
2024-03-12T20:43:15.060Z,48.75
2024-03-12T20:48:18.662Z,42.28
2024-03-12T20:53:21.929Z,37.72
2024-03-12T20:58:25.129Z,47.38
2024-03-12T21:03:32.830Z,44.17
2024-03-12T21:08:35.633Z,43.40
2024-03-12T21:13:39.478Z,45.77
2024-03-12T21:18:43.481Z,33.67
2024-03-12T21:23:47.054Z,43.15
2024-03-12T21:28:49.727Z,43.23
2024-03-12T21:33:53.288Z,43.13
2024-03-12T21:38:56.153Z,47.78
2024-03-12T21:43:59.232Z,43.92
2024-03-12T21:49:02.801Z,42.97
2024-03-12T21:54:05.892Z,47.97
2024-03-12T21:59:09.881Z,42.38
2024-03-12T22:04:12.967Z,47.03
2024-03-12T22:09:17.662Z,47.35
2024-03-12T22:14:20.515Z,46.90
2024-03-12T22:19:24.182Z,46.40
2024-03-12T22:24:27.243Z,46.07
2024-03-12T22:29:33.989Z,47.15
2024-03-12T22:34:38.230Z,44.08
2024-03-12T22:39:41.498Z,37.83
2024-03-12T22:44:44.961Z,45.13
2024-03-12T22:49:49.017Z,45.50
2024-03-12T22:54:57.963Z,40.65
2024-03-12T23:00:00.810Z,45.47
2024-03-12T23:05:09.361Z,42.92
2024-03-12T23:10:13.446Z,42.83
2024-03-12T23:15:21.331Z,46.72
2024-03-12T23:20:25.563Z,45.70
2024-03-12T23:25:28.567Z,47.30
2024-03-12T23:30:35.607Z,37.50
2024-03-12T23:35:38.343Z,45.58
2024-03-12T23:40:42.665Z,48.80
2024-03-12T23:45:45.993Z,35.47
2024-03-12T23:50:50.988Z,43.50
2024-03-12T23:55:55.032Z,39.33
